createdAt,value
2018-03-14T00:01:23.012Z,75.50
2018-03-14T00:03:52.634Z,76.83
2018-03-14T00:06:24.209Z,76.18
2018-03-14T00:08:54.515Z,71.81
2018-03-14T00:11:25.245Z,71.14
2018-03-14T00:13:55.991Z,70.99
2018-03-14T00:16:25.691Z,71.66
2018-03-14T00:18:55.409Z,73.07
2018-03-14T00:21:29.208Z,75.41
2018-03-14T00:24:03.014Z,77.81
2018-03-14T00:26:32.711Z,80.19
2018-03-14T00:29:02.421Z,82.05
2018-03-14T00:31:32.834Z,78.38
2018-03-14T00:34:02.520Z,74.85
2018-03-14T00:36:32.153Z,72.84
2018-03-14T00:39:02.024Z,72.23
2018-03-14T00:41:33.615Z,72.85
2018-03-14T00:44:06.406Z,75.00
2018-03-14T00:46:36.457Z,79.15
2018-03-14T00:49:09.666Z,82.03
2018-03-14T00:51:39.557Z,80.70
2018-03-14T00:54:09.922Z,76.59
2018-03-14T00:56:39.934Z,75.19
2018-03-14T00:59:09.822Z,74.39
2018-03-14T01:01:39.703Z,75.32
2018-03-14T01:04:11.342Z,74.71
2018-03-14T01:06:41.117Z,72.68
2018-03-14T01:09:12.347Z,71.39
2018-03-14T01:11:55.724Z,69.20
2018-03-14T01:14:41.854Z,67.85
2018-03-14T01:17:15.566Z,67.02
2018-03-14T01:19:48.783Z,68.89
2018-03-14T01:22:18.678Z,69.62
2018-03-14T01:24:48.800Z,70.50
2018-03-14T01:27:18.518Z,70.33
2018-03-14T01:29:48.276Z,67.47
2018-03-14T01:32:18.074Z,67.92
2018-03-14T01:34:47.786Z,68.31
2018-03-14T01:37:17.462Z,68.74
2018-03-14T01:39:47.207Z,69.22
2018-03-14T01:42:16.710Z,70.21
2018-03-14T01:44:47.249Z,70.47
2018-03-14T01:47:17.874Z,69.81
2018-03-14T01:49:48.226Z,69.76
2018-03-14T01:52:17.741Z,70.77
2018-03-14T01:54:48.136Z,71.89
2018-03-14T01:57:17.802Z,72.34
2018-03-14T01:59:47.655Z,71.27
2018-03-14T02:02:18.711Z,69.75
2018-03-14T02:04:48.413Z,69.18
2018-03-14T02:07:17.993Z,68.64
2018-03-14T02:09:47.575Z,67.71
2018-03-14T02:12:17.409Z,66.08
2018-03-14T02:14:47.209Z,63.42
2018-03-14T02:17:17.476Z,62.17
2018-03-14T02:19:47.021Z,62.49
2018-03-14T02:22:16.691Z,63.03
2018-03-14T02:24:48.031Z,63.37
2018-03-14T02:27:17.871Z,65.36
2018-03-14T02:29:48.186Z,67.83
2018-03-14T02:32:17.890Z,68.79
2018-03-14T02:34:48.282Z,70.52
2018-03-14T02:37:17.810Z,69.70
2018-03-14T02:39:47.337Z,70.02
2018-03-14T02:42:20.797Z,70.56
2018-03-14T02:44:50.866Z,70.98
2018-03-14T02:47:22.063Z,71.84
2018-03-14T02:49:52.304Z,72.57
2018-03-14T02:52:22.716Z,73.76
2018-03-14T02:54:53.057Z,73.52
2018-03-14T02:57:24.574Z,74.20
2018-03-14T02:59:54.329Z,76.19
2018-03-14T03:02:23.893Z,77.34
2018-03-14T03:04:53.558Z,79.77
2018-03-14T03:07:23.065Z,82.94
2018-03-14T03:09:52.573Z,84.93
2018-03-14T03:12:22.572Z,85.13
2018-03-14T03:14:53.699Z,86.23
2018-03-14T03:17:23.296Z,85.82
2018-03-14T03:19:53.051Z,86.20
2018-03-14T03:22:23.459Z,83.56
2018-03-14T03:24:53.583Z,81.29
2018-03-14T03:27:25.075Z,81.52
2018-03-14T03:29:56.118Z,80.65
2018-03-14T03:32:27.617Z,80.06
2018-03-14T03:34:57.863Z,78.90
2018-03-14T03:37:29.577Z,75.92
2018-03-14T03:40:01.863Z,75.59
2018-03-14T03:42:31.709Z,75.94
2018-03-14T03:45:04.988Z,78.09
2018-03-14T03:47:34.586Z,77.84
2018-03-14T03:50:04.511Z,79.04
2018-03-14T03:52:34.499Z,78.62
2018-03-14T03:55:05.062Z,78.86
2018-03-14T03:57:35.120Z,79.28
2018-03-14T04:00:05.449Z,79.76
2018-03-14T04:02:35.943Z,80.47
2018-03-14T04:05:06.110Z,79.11
2018-03-14T04:07:37.666Z,78.88
2018-03-14T04:10:07.726Z,78.66
2018-03-14T04:12:38.839Z,76.75
2018-03-14T04:15:09.228Z,76.96
2018-03-14T04:17:39.278Z,77.83
2018-03-14T04:20:09.445Z,78.55
2018-03-14T04:22:39.265Z,81.24
2018-03-14T04:25:08.960Z,81.19
2018-03-14T04:27:38.761Z,80.06
2018-03-14T04:30:08.290Z,78.92
2018-03-14T04:32:37.904Z,79.45
2018-03-14T04:35:07.803Z,79.62
2018-03-14T04:37:37.495Z,79.86
2018-03-14T04:40:07.115Z,79.42
2018-03-14T04:42:36.716Z,79.36
2018-03-14T04:45:06.450Z,80.58
2018-03-14T04:47:36.067Z,81.77
2018-03-14T04:50:05.761Z,82.31
2018-03-14T04:52:36.289Z,83.49
2018-03-14T04:55:06.211Z,83.57
2018-03-14T04:57:35.851Z,84.72
2018-03-14T05:00:06.428Z,83.19
2018-03-14T05:02:36.050Z,83.45
2018-03-14T05:05:05.758Z,83.41
2018-03-14T05:07:35.378Z,82.96
2018-03-14T05:10:05.157Z,81.73
2018-03-14T05:12:44.086Z,81.09
2018-03-14T05:15:13.759Z,79.60
2018-03-14T05:17:44.326Z,78.51
2018-03-14T05:20:14.150Z,80.02
2018-03-14T05:22:43.738Z,79.72
2018-03-14T05:25:13.447Z,83.40
2018-03-14T05:27:44.950Z,83.53
2018-03-14T05:30:18.161Z,83.88
2018-03-14T05:32:47.965Z,83.11
2018-03-14T05:35:19.834Z,82.59
2018-03-14T05:37:51.940Z,82.89
2018-03-14T05:40:33.074Z,82.91
2018-03-14T05:43:03.224Z,83.47
2018-03-14T05:45:34.083Z,83.35
2018-03-14T05:48:03.699Z,83.07
2018-03-14T05:50:33.325Z,83.32
2018-03-14T05:53:03.534Z,82.68
2018-03-14T05:55:33.358Z,82.54
2018-03-14T05:58:02.907Z,83.25
2018-03-14T06:00:32.567Z,81.78
2018-03-14T06:03:02.284Z,82.35
2018-03-14T06:05:32.000Z,81.43
2018-03-14T06:08:01.776Z,81.05
2018-03-14T06:10:33.888Z,82.77
2018-03-14T06:13:03.642Z,82.71
2018-03-14T06:15:34.131Z,83.86
2018-03-14T06:18:03.887Z,82.60
2018-03-14T06:20:34.460Z,81.56
2018-03-14T06:23:05.617Z,80.75
2018-03-14T06:25:36.320Z,79.18
2018-03-14T06:28:06.425Z,79.44
2018-03-14T06:30:55.722Z,79.32
2018-03-14T06:33:33.405Z,80.07
2018-03-14T06:36:05.063Z,80.20
2018-03-14T06:39:09.018Z,79.86
2018-03-14T06:44:46.338Z,76.62
2018-03-14T06:47:17.312Z,76.11
2018-03-14T06:50:00.313Z,75.15
2018-03-14T06:52:31.000Z,75.44
2018-03-14T06:55:00.781Z,72.71
2018-03-14T06:57:30.294Z,72.73
2018-03-14T07:00:18.682Z,73.35
2018-03-14T07:02:49.154Z,73.74
2018-03-14T07:05:37.499Z,72.37
2018-03-14T07:08:07.006Z,72.14
2018-03-14T07:10:36.627Z,72.41
2018-03-14T07:13:06.361Z,71.93
2018-03-14T07:15:36.896Z,71.51
2018-03-14T07:18:06.515Z,71.78
2018-03-14T07:20:36.116Z,70.27
2018-03-14T07:23:05.928Z,71.52
2018-03-14T07:25:35.637Z,70.66
2018-03-14T07:28:05.253Z,69.88
2018-03-14T07:30:34.831Z,68.45
2018-03-14T07:33:04.517Z,69.31
2018-03-14T07:35:34.190Z,65.97
2018-03-14T07:38:03.753Z,64.01
2018-03-14T07:40:33.477Z,59.47
2018-03-14T07:43:03.089Z,53.74
2018-03-14T07:45:32.749Z,53.59
2018-03-14T07:48:02.386Z,55.00
2018-03-14T07:50:32.238Z,53.06
2018-03-14T07:53:01.919Z,55.70
2018-03-14T07:55:31.757Z,59.02
2018-03-14T07:58:01.607Z,60.55
2018-03-14T08:00:34.179Z,59.24
2018-03-14T08:03:04.668Z,58.31
2018-03-14T08:05:37.208Z,55.01
2018-03-14T08:08:07.895Z,54.71
2018-03-14T08:10:37.569Z,57.41
2018-03-14T08:13:07.335Z,53.53
2018-03-14T08:15:37.817Z,54.57
2018-03-14T08:18:07.552Z,50.94
2018-03-14T08:20:37.086Z,49.66
2018-03-14T08:23:06.758Z,49.99
2018-03-14T08:25:36.379Z,50.50
2018-03-14T08:28:05.950Z,49.44
2018-03-14T08:30:35.795Z,50.15
2018-03-14T08:33:06.153Z,47.99
2018-03-14T08:35:36.170Z,45.92
2018-03-14T08:38:06.972Z,44.93
2018-03-14T08:40:37.812Z,43.89
2018-03-14T08:43:07.844Z,41.96
2018-03-14T08:45:38.254Z,41.11
2018-03-14T08:48:08.011Z,41.20
2018-03-14T08:50:37.779Z,42.42
2018-03-14T08:53:07.598Z,40.07
2018-03-14T08:55:45.983Z,37.34
2018-03-14T08:58:15.944Z,35.74
2018-03-14T09:00:45.800Z,33.99
2018-03-14T09:03:16.833Z,31.48
2018-03-14T09:05:51.151Z,29.87
2018-03-14T09:08:21.129Z,29.93
2018-03-14T09:10:50.943Z,30.70
2018-03-14T09:13:20.456Z,31.13
2018-03-14T09:15:51.647Z,31.00
2018-03-14T09:18:21.516Z,30.27
2018-03-14T09:20:51.390Z,29.71
2018-03-14T09:23:20.952Z,28.38
2018-03-14T09:25:52.048Z,28.91
2018-03-14T09:28:21.606Z,27.79
2018-03-14T09:30:53.519Z,29.44
2018-03-14T09:33:23.310Z,30.45
2018-03-14T09:35:53.132Z,31.27
2018-03-14T09:38:23.887Z,32.92
2018-03-14T09:40:54.235Z,35.61
2018-03-14T09:43:24.202Z,39.92
2018-03-14T09:45:55.785Z,43.46
2018-03-14T09:48:29.422Z,44.63
2018-03-14T09:51:01.910Z,46.96
2018-03-14T09:53:32.614Z,46.32
2018-03-14T09:56:08.356Z,46.19
2018-03-14T09:58:38.056Z,45.42
2018-03-14T10:01:10.716Z,48.40
2018-03-14T10:03:45.884Z,46.92
2018-03-14T10:06:17.904Z,46.29
2018-03-14T10:08:48.295Z,43.56
2018-03-14T10:11:25.616Z,41.89
2018-03-14T10:13:56.566Z,41.57
2018-03-14T10:16:26.553Z,41.15
2018-03-14T10:18:56.524Z,41.48
2018-03-14T10:21:27.095Z,43.43
2018-03-14T10:23:56.724Z,45.04
2018-03-14T10:26:27.164Z,46.60
2018-03-14T10:28:56.987Z,44.63
2018-03-14T10:31:26.939Z,43.44
2018-03-14T10:33:56.751Z,42.47
2018-03-14T10:36:26.739Z,38.21
2018-03-14T10:38:56.831Z,34.28
2018-03-14T10:41:30.610Z,31.05
2018-03-14T10:47:32.378Z,27.07
2018-03-14T10:53:25.550Z,25.88
2018-03-14T10:55:55.783Z,25.61
2018-03-14T10:58:25.584Z,26.57
2018-03-14T11:01:12.062Z,26.19
2018-03-14T11:03:45.707Z,29.34
2018-03-14T11:06:16.588Z,33.00
2018-03-14T11:08:47.023Z,39.76
2018-03-14T11:11:16.528Z,41.94
2018-03-14T11:13:46.129Z,42.73
2018-03-14T11:16:15.825Z,43.70
2018-03-14T11:18:47.409Z,44.83
2018-03-14T11:21:17.110Z,39.88
2018-03-14T11:23:47.256Z,39.09
2018-03-14T11:26:16.970Z,38.10
2018-03-14T11:28:46.637Z,39.11
2018-03-14T11:31:17.268Z,35.22
2018-03-14T11:33:47.816Z,32.42
2018-03-14T11:36:18.351Z,30.63
2018-03-14T11:38:48.692Z,28.68
2018-03-14T11:41:18.259Z,27.86
2018-03-14T11:43:48.684Z,29.32
2018-03-14T11:46:19.132Z,28.45
2018-03-14T11:48:48.834Z,26.20
2018-03-14T11:51:21.234Z,25.71
2018-03-14T11:53:55.035Z,26.84
2018-03-14T11:56:25.342Z,26.55
2018-03-14T11:58:55.089Z,26.69
2018-03-14T12:01:24.702Z,29.49
2018-03-14T12:03:54.616Z,27.93
2018-03-14T12:06:24.421Z,26.11
2018-03-14T12:08:54.325Z,26.40
2018-03-14T12:11:24.084Z,27.19
2018-03-14T12:13:54.082Z,26.67
2018-03-14T12:16:23.754Z,26.10
2018-03-14T12:18:53.365Z,26.39
2018-03-14T12:21:23.199Z,26.02
2018-03-14T12:23:52.821Z,26.36
2018-03-14T12:26:22.499Z,25.24
2018-03-14T12:28:53.064Z,25.25
2018-03-14T12:31:22.868Z,26.13
2018-03-14T12:33:52.570Z,25.10
2018-03-14T12:36:22.820Z,24.37
2018-03-14T12:38:52.511Z,24.60
2018-03-14T12:41:22.192Z,25.53
2018-03-14T12:43:51.931Z,26.40
2018-03-14T12:46:21.719Z,27.26
2018-03-14T12:48:51.226Z,27.94
2018-03-14T12:51:20.849Z,28.70
2018-03-14T12:53:50.783Z,27.54
2018-03-14T12:56:21.400Z,26.72
2018-03-14T12:58:51.203Z,26.30
2018-03-14T13:01:20.810Z,25.12
2018-03-14T13:03:51.333Z,25.88
2018-03-14T13:06:20.989Z,25.58
2018-03-14T13:08:51.151Z,24.75
2018-03-14T13:11:21.786Z,26.94
2018-03-14T13:13:51.654Z,28.26
2018-03-14T13:16:21.284Z,28.53
2018-03-14T13:18:51.775Z,28.56
2018-03-14T13:21:29.209Z,30.12
2018-03-14T13:23:59.079Z,29.92
2018-03-14T13:26:28.682Z,30.39
2018-03-14T13:28:58.395Z,29.22
2018-03-14T13:31:28.211Z,28.01
2018-03-14T13:33:59.008Z,27.97
2018-03-14T13:36:28.518Z,29.45
2018-03-14T13:38:59.536Z,30.07
2018-03-14T13:41:29.149Z,30.05
2018-03-14T13:43:59.629Z,29.62
2018-03-14T13:46:30.901Z,29.32
2018-03-14T13:52:10.415Z,30.30
2018-03-14T13:54:43.866Z,31.22
2018-03-14T13:57:15.060Z,34.00
2018-03-14T13:59:44.691Z,35.57
2018-03-14T14:02:14.215Z,36.52
2018-03-14T14:04:44.627Z,37.81
2018-03-14T14:07:16.576Z,38.11
2018-03-14T14:09:46.764Z,40.37
2018-03-14T14:12:18.910Z,40.78
2018-03-14T14:14:49.218Z,40.40
2018-03-14T14:17:19.181Z,40.46
2018-03-14T14:19:48.786Z,40.18
2018-03-14T14:22:20.812Z,40.65
2018-03-14T14:24:50.497Z,41.61
2018-03-14T14:27:22.763Z,42.15
2018-03-14T14:29:52.519Z,42.59
2018-03-14T14:35:24.874Z,43.90
2018-03-14T14:37:54.584Z,45.48
2018-03-14T14:40:29.492Z,45.93
2018-03-14T14:43:03.302Z,45.00
2018-03-14T14:45:34.790Z,44.61
2018-03-14T14:48:34.957Z,44.21
2018-03-14T14:51:08.588Z,44.64
2018-03-14T14:53:39.496Z,44.12
2018-03-14T14:56:09.878Z,44.19
2018-03-14T14:58:39.586Z,44.68
2018-03-14T15:01:09.216Z,44.25
2018-03-14T15:03:40.520Z,44.96
2018-03-14T15:06:10.164Z,44.54
2018-03-14T15:08:39.827Z,45.43
2018-03-14T15:11:09.634Z,44.67
2018-03-14T15:13:39.154Z,44.71
2018-03-14T15:16:13.336Z,45.21
2018-03-14T15:18:43.673Z,45.55
2018-03-14T15:21:13.473Z,46.43
2018-03-14T15:23:44.153Z,45.72
2018-03-14T15:26:13.866Z,46.05
2018-03-14T15:28:44.727Z,45.39
2018-03-14T15:31:14.305Z,45.40
2018-03-14T15:33:44.094Z,45.54
2018-03-14T15:36:13.976Z,45.33
2018-03-14T15:38:44.376Z,44.49
2018-03-14T15:41:14.903Z,44.59
2018-03-14T15:43:45.067Z,45.28
2018-03-14T15:46:15.635Z,45.64
2018-03-14T15:48:57.921Z,46.68
2018-03-14T15:51:30.532Z,47.09
2018-03-14T15:54:00.503Z,47.52
2018-03-14T15:56:30.863Z,49.24
2018-03-14T15:59:01.170Z,50.23
2018-03-14T16:01:31.017Z,50.93
2018-03-14T16:04:00.794Z,51.17
2018-03-14T16:06:30.719Z,51.79
2018-03-14T16:09:02.013Z,52.40
2018-03-14T16:11:32.143Z,52.94
2018-03-14T16:14:02.075Z,53.53
2018-03-14T16:16:32.580Z,53.51
2018-03-14T16:19:04.766Z,54.02
2018-03-14T16:21:42.260Z,55.01
2018-03-14T16:24:34.812Z,54.85
2018-03-14T16:27:17.984Z,54.35
2018-03-14T16:30:16.462Z,54.76
2018-03-14T16:33:20.630Z,54.67
2018-03-14T16:36:00.760Z,55.31
2018-03-14T16:38:30.682Z,55.26
2018-03-14T16:41:01.469Z,54.84
2018-03-14T16:43:31.930Z,55.64
2018-03-14T16:46:03.694Z,55.61
2018-03-14T16:48:33.514Z,55.88
2018-03-14T16:51:03.239Z,55.70
2018-03-14T16:53:33.622Z,55.97
2018-03-14T16:56:03.240Z,55.98
2018-03-14T16:58:33.170Z,56.76
2018-03-14T17:01:02.790Z,56.21
2018-03-14T17:03:32.427Z,57.17
2018-03-14T17:06:02.078Z,57.47
2018-03-14T17:08:32.747Z,58.01
2018-03-14T17:11:03.916Z,58.93
2018-03-14T17:13:33.803Z,59.34
2018-03-14T17:16:03.894Z,60.12
2018-03-14T17:18:33.543Z,60.25
2018-03-14T17:21:03.110Z,60.39
2018-03-14T17:23:32.932Z,60.47
2018-03-14T17:26:04.267Z,61.25
2018-03-14T17:28:43.762Z,60.86
2018-03-14T17:31:14.113Z,61.18
2018-03-14T17:33:43.621Z,61.12
2018-03-14T17:36:13.627Z,60.57
2018-03-14T17:38:43.459Z,61.03
2018-03-14T17:41:13.127Z,61.84
2018-03-14T17:43:42.647Z,61.92
2018-03-14T17:46:13.031Z,62.17
2018-03-14T17:48:42.632Z,61.72
2018-03-14T17:51:12.209Z,61.34
2018-03-14T17:53:42.050Z,61.10
2018-03-14T17:56:11.736Z,61.74
2018-03-14T17:58:42.253Z,61.86
2018-03-14T18:01:13.231Z,61.15
2018-03-14T18:03:44.612Z,61.12
2018-03-14T18:06:14.184Z,61.40
2018-03-14T18:08:44.664Z,60.93
2018-03-14T18:11:15.103Z,61.23
2018-03-14T18:13:45.054Z,61.33
2018-03-14T18:16:14.617Z,61.25
2018-03-14T18:18:45.613Z,60.74
2018-03-14T18:21:16.243Z,61.25
2018-03-14T18:23:47.634Z,62.55
2018-03-14T18:26:18.328Z,61.82
2018-03-14T18:28:47.889Z,61.86
2018-03-14T18:31:17.643Z,61.34
2018-03-14T18:33:47.410Z,61.57
2018-03-14T18:36:17.886Z,61.77
2018-03-14T18:38:47.742Z,60.78
2018-03-14T18:41:17.267Z,61.08
2018-03-14T18:43:46.776Z,61.12
2018-03-14T18:46:31.651Z,61.05
2018-03-14T18:49:02.402Z,60.62
2018-03-14T18:51:33.761Z,60.87
2018-03-14T18:54:07.752Z,61.74
2018-03-14T18:56:37.681Z,61.78
2018-03-14T18:59:07.394Z,62.00
2018-03-14T19:01:37.109Z,62.19
2018-03-14T19:04:06.650Z,61.97
2018-03-14T19:06:37.036Z,61.51
2018-03-14T19:09:06.722Z,61.68
2018-03-14T19:11:36.221Z,61.61
2018-03-14T19:14:06.142Z,61.35
2018-03-14T19:16:36.783Z,61.46
2018-03-14T19:19:12.940Z,61.72
2018-03-14T19:21:44.572Z,61.79
2018-03-14T19:24:15.867Z,62.32
2018-03-14T19:26:45.480Z,62.54
2018-03-14T19:29:14.960Z,62.86
2018-03-14T19:31:44.697Z,63.01
2018-03-14T19:34:14.682Z,63.61
2018-03-14T19:36:50.742Z,63.64
2018-03-14T19:39:23.873Z,63.36
2018-03-14T19:42:00.416Z,63.36
2018-03-14T19:44:31.608Z,63.71
2018-03-14T19:47:03.545Z,63.70
2018-03-14T19:49:33.459Z,63.60
2018-03-14T19:52:02.965Z,62.90
2018-03-14T19:54:32.570Z,62.36
2018-03-14T19:57:02.446Z,62.54
2018-03-14T19:59:31.981Z,63.50
2018-03-14T20:02:01.711Z,63.84
2018-03-14T20:04:31.446Z,64.32
2018-03-14T20:07:01.028Z,64.27
2018-03-14T20:09:30.610Z,64.55
2018-03-14T20:12:00.522Z,65.25
2018-03-14T20:14:30.130Z,66.12
2018-03-14T20:16:59.944Z,67.12
2018-03-14T20:19:30.415Z,68.27
2018-03-14T20:22:01.262Z,68.84
2018-03-14T20:24:31.476Z,67.45
2018-03-14T20:27:01.750Z,66.71
2018-03-14T20:29:47.003Z,66.60
2018-03-14T20:32:17.377Z,66.64
2018-03-14T20:34:47.549Z,66.60
2018-03-14T20:37:18.057Z,66.70
2018-03-14T20:39:47.743Z,66.92
2018-03-14T20:42:17.232Z,67.74
2018-03-14T20:44:46.789Z,68.92
2018-03-14T20:47:16.370Z,68.52
2018-03-14T20:49:46.893Z,67.87
2018-03-14T20:52:16.706Z,67.17
2018-03-14T20:54:46.176Z,67.01
2018-03-14T20:57:16.615Z,67.39
2018-03-14T20:59:46.662Z,68.48
2018-03-14T21:02:18.048Z,68.86
2018-03-14T21:04:47.844Z,68.71
2018-03-14T21:07:17.635Z,69.22
2018-03-14T21:09:47.245Z,70.29
2018-03-14T21:12:16.719Z,71.21
2018-03-14T21:14:46.328Z,72.74
2018-03-14T21:17:16.134Z,74.03
2018-03-14T21:19:46.358Z,74.72
2018-03-14T21:22:16.101Z,73.96
2018-03-14T21:24:45.794Z,73.27
2018-03-14T21:27:15.589Z,72.21
2018-03-14T21:29:45.746Z,71.96
2018-03-14T21:32:16.317Z,71.73
2018-03-14T21:34:46.088Z,71.57
2018-03-14T21:37:16.772Z,71.54
2018-03-14T21:39:46.392Z,71.73
2018-03-14T21:42:17.058Z,72.22
2018-03-14T21:44:46.625Z,73.22
2018-03-14T21:47:16.930Z,73.70
2018-03-14T21:49:47.686Z,74.66
2018-03-14T21:52:17.926Z,75.55
2018-03-14T21:54:49.014Z,76.30
2018-03-14T21:57:20.609Z,76.26
2018-03-14T21:59:51.168Z,75.53
2018-03-14T22:02:21.077Z,74.88
2018-03-14T22:04:51.816Z,74.62
2018-03-14T22:07:21.736Z,75.24
2018-03-14T22:09:51.463Z,76.09
2018-03-14T22:12:21.301Z,76.30
2018-03-14T22:14:51.800Z,77.25
2018-03-14T22:17:21.399Z,77.82
2018-03-14T22:19:51.435Z,78.37
2018-03-14T22:22:27.114Z,79.21
2018-03-14T22:24:56.616Z,80.15
2018-03-14T22:27:28.232Z,80.09
2018-03-14T22:29:57.833Z,79.82
2018-03-14T22:32:27.361Z,79.28
2018-03-14T22:34:56.848Z,79.29
2018-03-14T22:37:26.407Z,80.18
2018-03-14T22:39:57.146Z,81.22
2018-03-14T22:42:26.927Z,81.89
2018-03-14T22:44:56.531Z,83.10
2018-03-14T22:47:26.233Z,83.57
2018-03-14T22:49:55.728Z,82.04
2018-03-14T22:52:26.526Z,80.21
2018-03-14T22:54:59.477Z,79.36
2018-03-14T22:57:29.036Z,79.82
2018-03-14T22:59:59.231Z,79.66
2018-03-14T23:02:29.752Z,79.41
2018-03-14T23:04:59.728Z,79.28
2018-03-14T23:07:29.416Z,79.26
2018-03-14T23:09:59.757Z,78.14
2018-03-14T23:12:30.462Z,77.67
2018-03-14T23:15:00.387Z,76.82
2018-03-14T23:17:30.879Z,77.01
2018-03-14T23:20:01.197Z,77.14
2018-03-14T23:22:31.452Z,77.95
2018-03-14T23:25:03.005Z,78.41
2018-03-14T23:27:32.607Z,79.01
2018-03-14T23:30:03.500Z,79.37
2018-03-14T23:32:33.029Z,79.04
2018-03-14T23:35:02.643Z,77.98
2018-03-14T23:37:33.767Z,78.06
2018-03-14T23:40:03.548Z,79.08
2018-03-14T23:42:33.177Z,79.34
2018-03-14T23:45:02.889Z,79.46
2018-03-14T23:47:34.645Z,79.92
2018-03-14T23:50:04.924Z,81.26
2018-03-14T23:52:36.453Z,82.87
2018-03-14T23:55:09.912Z,83.99
2018-03-14T23:57:43.126Z,85.50
